createdAt,value
2022-12-04T00:08:32.349Z,9.6
2022-12-04T00:18:40.928Z,9.6
2022-12-04T00:28:49.229Z,9.3
2022-12-04T00:38:57.463Z,9.2
2022-12-04T00:49:05.700Z,9.3
2022-12-04T00:59:13.993Z,9.4
2022-12-04T01:09:22.156Z,9.1
2022-12-04T01:19:30.447Z,9.1
2022-12-04T01:29:38.528Z,9
2022-12-04T01:39:46.619Z,9
2022-12-04T01:49:54.412Z,9
2022-12-04T02:00:02.433Z,9.2
2022-12-04T02:10:10.518Z,9.2
2022-12-04T02:20:19.143Z,9.2
2022-12-04T02:30:27.560Z,8.8
2022-12-04T02:40:35.625Z,8.6
2022-12-04T02:50:44.113Z,8.8
2022-12-04T03:00:53.481Z,8.8
2022-12-04T03:11:01.780Z,8.9
2022-12-04T03:21:10.137Z,8.7
2022-12-04T03:31:18.421Z,8.6
2022-12-04T03:41:26.716Z,8.6
2022-12-04T03:51:34.904Z,8.7
2022-12-04T04:01:43.190Z,8.7
2022-12-04T04:11:51.347Z,8.5
2022-12-04T04:21:59.407Z,8.6
2022-12-04T04:32:07.624Z,8.6
2022-12-04T04:42:15.871Z,8.4
2022-12-04T04:52:24.156Z,8.2
2022-12-04T05:02:32.580Z,8.3
2022-12-04T05:12:41.957Z,8.3
2022-12-04T05:22:51.577Z,8.4
2022-12-04T05:32:59.831Z,8.4
2022-12-04T05:43:08.005Z,8.2
2022-12-04T05:53:16.080Z,8.5
2022-12-04T06:03:24.549Z,8.7
2022-12-04T06:13:32.674Z,8.5
2022-12-04T06:23:40.764Z,8.4
2022-12-04T06:33:49.237Z,8.4
2022-12-04T06:43:57.316Z,8.5
2022-12-04T06:54:05.566Z,8.3
2022-12-04T07:04:14.920Z,8.2
2022-12-04T07:14:23.203Z,8.1
2022-12-04T07:24:31.400Z,8
2022-12-04T07:34:40.282Z,8.2
2022-12-04T07:44:48.462Z,8.3
2022-12-04T07:54:57.860Z,8.5
2022-12-04T08:05:06.486Z,8.6
2022-12-04T08:15:14.707Z,8.5
2022-12-04T08:25:22.973Z,8.7
2022-12-04T08:35:31.207Z,8.8
2022-12-04T08:45:39.626Z,8.7
2022-12-04T08:55:47.854Z,8.9
2022-12-04T09:05:56.003Z,8.9
2022-12-04T09:16:04.600Z,9
2022-12-04T09:26:12.638Z,9.2
2022-12-04T09:36:20.979Z,9.4
2022-12-04T09:46:29.481Z,9.2
2022-12-04T09:56:37.886Z,9.5
2022-12-04T10:06:46.063Z,9.7
2022-12-04T10:16:54.529Z,10.1
2022-12-04T10:27:02.924Z,10.3
2022-12-04T10:37:11.719Z,10.3
2022-12-04T10:47:20.338Z,10.5
2022-12-04T10:57:28.853Z,10.6
2022-12-04T11:07:37.553Z,10.7
2022-12-04T11:17:45.997Z,10.6
2022-12-04T11:27:54.257Z,10.7
2022-12-04T11:38:02.700Z,10.8
2022-12-04T11:48:11.571Z,10.9
2022-12-04T11:58:19.777Z,11.3
2022-12-04T12:08:28.640Z,11.2
2022-12-04T12:18:37.054Z,11.7
2022-12-04T12:28:45.467Z,12
2022-12-04T12:38:53.827Z,13.3
2022-12-04T12:49:03.515Z,13.8
2022-12-04T13:09:05.310Z,15
2022-12-04T13:29:15.197Z,13.8
2022-12-04T13:39:13.853Z,13.6
2022-12-04T13:49:15.558Z,13.6
2022-12-04T13:59:23.509Z,14.3
2022-12-04T14:19:30.131Z,14
2022-12-04T14:29:33.521Z,14.8
2022-12-04T14:39:33.155Z,14.1
2022-12-04T14:59:38.426Z,14.2
2022-12-04T15:09:46.865Z,14.4
2022-12-04T15:19:55.404Z,14
2022-12-04T15:30:04.805Z,14
2022-12-04T15:40:18.837Z,14.2
2022-12-04T15:50:26.101Z,14.4
2022-12-04T16:00:28.153Z,14
2022-12-04T16:20:33.590Z,13.3
2022-12-04T16:30:43.782Z,13.5
2022-12-04T16:40:52.507Z,13.6
2022-12-04T16:50:52.675Z,13.8
2022-12-04T17:00:52.965Z,13.5
2022-12-04T17:11:05.212Z,13.6
2022-12-04T17:21:12.075Z,13.6
2022-12-04T17:31:13.633Z,13.4
2022-12-04T17:51:30.501Z,13.3
2022-12-04T18:01:34.780Z,12.8
2022-12-04T18:11:44.191Z,12.8
2022-12-04T18:21:49.930Z,12.7
2022-12-04T18:31:50.613Z,12.7
2022-12-04T18:41:50.082Z,12.3
2022-12-04T18:51:58.388Z,11.6
2022-12-04T19:02:07.080Z,11.2
2022-12-04T19:12:15.451Z,11.2
2022-12-04T19:22:25.194Z,11
2022-12-04T19:32:34.613Z,10.6
2022-12-04T19:52:54.283Z,10.1
2022-12-04T20:03:05.100Z,9.9
2022-12-04T20:12:57.658Z,10.1
2022-12-04T20:23:05.949Z,10.3
2022-12-04T20:33:14.965Z,9.8
2022-12-04T20:43:19.710Z,9.7
2022-12-04T20:53:29.305Z,9.6
2022-12-04T21:03:38.153Z,9.4
2022-12-04T21:13:46.731Z,9.1
2022-12-04T21:23:55.300Z,8.9
2022-12-04T21:34:04.256Z,8.9
2022-12-04T21:44:12.797Z,8.7
2022-12-04T21:54:21.358Z,8.4
2022-12-04T22:04:30.935Z,8.5
2022-12-04T22:14:39.630Z,8.4
2022-12-04T22:24:48.035Z,8.5
2022-12-04T22:34:56.166Z,8.6
2022-12-04T22:45:04.751Z,8.4
2022-12-04T22:55:14.515Z,8.6
2022-12-04T23:05:22.820Z,8.4
2022-12-04T23:15:31.550Z,8.4
2022-12-04T23:25:40.046Z,8.3
2022-12-04T23:35:48.744Z,8.3
2022-12-04T23:45:57.174Z,8.1
2022-12-04T23:56:04.864Z,7.9
